Salt Lake City, Utah
Traffic Map
Current Weather Conditions
Salt Lake City, Utah
Clear
Clear
62°
Feels Like: 62°
Wind Chill: 62° Ceiling: Unl
Heat Index: 62° Visibility: 10mi
Dew Point: 41° Wind: 8mph
Humidity: 46% Direction: 130° (SE)
Pressure: 29.92in Gusts: 0mph
Raw Report DataKSLC 240854Z 13007KT 10SM CLR 17/05 A2992 RMK AO2 SLP084 T01670050 58014
Traffic Incident Summary
Active as of:
Severity:
Category:
InformationThere was an issue retrieving the traffic information for this location. Please try a different location or try again shortly.
Advertisements
Track Severe Weather on mobile